Time;durP1;ratioP1;P1;durP2;ratioP2;P2;SDS_P1;SDS_P2;PMS_P1;PMS_P2;Temp;Humidity;BMP_temperature;BMP_pressure;BME280_temperature;BME280_humidity;BME280_pressure;Samples;Min_cycle;Max_cycle;Signal;HPM_P1;HPM_P2
2023/09/08 00:01:50;;;;;;;9.00;7.08;;;;;;;25.20;50.22;101603.98;2229446;79;50735;-77
2023/09/08 00:04:52;;;;;;;8.88;6.87;;;;;;;25.20;50.19;101590.44;2240762;79;51572;-77
2023/09/08 00:07:55;;;;;;;10.30;7.85;;;;;;;25.21;50.18;101592.13;2207305;78;50629;-76
2023/09/08 00:10:57;;;;;;;9.13;7.80;;;;;;;25.20;50.19;101590.44;2182350;79;51669;-76
2023/09/08 00:13:59;;;;;;;10.23;7.10;;;;;;;25.20;50.14;101587.73;2206423;79;51458;-76
2023/09/08 00:17:01;;;;;;;8.65;7.20;;;;;;;25.20;50.16;101587.23;2237273;79;50633;-76
2023/09/08 00:20:10;;;;;;;10.48;7.37;;;;;;;25.20;50.18;101585.89;2228818;79;52352;-77
2023/09/08 00:23:12;;;;;;;9.30;7.05;;;;;;;25.20;50.16;101586.37;2251376;78;50815;-76
2023/09/08 00:26:14;;;;;;;9.25;6.92;;;;;;;25.21;50.18;101586.71;2240281;79;51559;-76
2023/09/08 00:29:16;;;;;;;8.53;7.17;;;;;;;25.19;50.21;101577.95;2228829;79;50588;-75
2023/09/08 00:32:18;;;;;;;11.85;7.95;;;;;;;25.19;50.16;101580.13;2204523;79;51537;-76
2023/09/08 00:35:21;;;;;;;12.00;7.25;;;;;;;25.19;50.19;101577.42;2205029;79;51403;-76
2023/09/08 00:38:23;;;;;;;8.45;6.87;;;;;;;25.20;50.17;101575.55;2249128;78;50411;-77
2023/09/08 00:41:25;;;;;;;10.38;6.85;;;;;;;25.19;50.14;101569.83;2240121;78;51564;-76
2023/09/08 00:44:27;;;;;;;7.17;6.35;;;;;;;25.18;50.18;101576.30;2264552;78;51074;-76
2023/09/08 00:47:29;;;;;;;8.48;6.87;;;;;;;25.18;50.15;101574.41;2222228;78;50308;-77
2023/09/08 00:50:32;;;;;;;9.33;7.28;;;;;;;25.18;50.13;101576.30;2260644;78;50653;-77
2023/09/08 00:53:34;;;;;;;10.15;6.95;;;;;;;25.18;50.15;101582.54;2260398;78;51589;-77
2023/09/08 00:56:36;;;;;;;9.45;7.47;;;;;;;25.17;50.18;101582.20;2260845;78;51675;-77
2023/09/08 00:59:39;;;;;;;9.73;6.87;;;;;;;25.17;50.12;101579.50;2240562;78;51283;-76
2023/09/08 01:02:41;;;;;;;8.83;6.37;;;;;;;25.17;50.11;101576.79;2240539;78;50023;-77
2023/09/08 01:05:46;;;;;;;8.58;6.70;;;;;;;25.17;50.12;101578.67;2240646;78;50402;-76
2023/09/08 01:08:47;;;;;;;8.60;6.95;;;;;;;25.17;50.10;101578.14;2266010;78;22512;-76
2023/09/08 01:11:50;;;;;;;8.75;6.78;;;;;;;25.18;50.07;101581.71;2261199;78;50604;-77
2023/09/08 01:14:52;;;;;;;7.80;6.37;;;;;;;25.16;50.10;101575.13;2261073;78;51439;-76
2023/09/08 01:17:54;;;;;;;9.25;6.42;;;;;;;25.16;50.10;101579.72;2200163;80;50755;-77
2023/09/08 01:21:16;;;;;;;9.73;6.58;;;;;;;25.16;50.10;101577.02;2224473;80;51547;-76
2023/09/08 01:24:40;;;;;;;10.45;7.30;;;;;;;25.16;50.09;101580.55;2204135;80;51293;-77
2023/09/08 01:27:44;;;;;;;7.95;6.50;;;;;;;25.15;50.10;101565.31;2224483;79;51524;-78
2023/09/08 01:30:46;;;;;;;11.90;7.17;;;;;;;25.15;50.13;101569.37;2224946;80;51765;-77
2023/09/08 01:33:48;;;;;;;8.25;6.05;;;;;;;25.15;50.12;101564.45;2204206;80;51110;-77
2023/09/08 01:36:51;;;;;;;7.65;6.65;;;;;;;25.15;50.11;101568.52;2224963;80;50129;-77
2023/09/08 01:39:53;;;;;;;7.75;6.95;;;;;;;25.14;50.13;101560.09;2195736;80;50717;-77
2023/09/08 01:42:55;;;;;;;11.65;6.60;;;;;;;25.14;50.12;101564.16;2170849;79;50157;-77
2023/09/08 01:45:57;;;;;;;8.35;6.80;;;;;;;25.14;50.13;101562.28;2229266;78;50750;-77
2023/09/08 01:48:59;;;;;;;6.83;6.12;;;;;;;25.14;50.13;101559.56;2249180;78;52532;-77
2023/09/08 01:52:02;;;;;;;7.55;6.47;;;;;;;25.13;50.10;101565.20;2283411;78;52253;-77
2023/09/08 01:55:04;;;;;;;7.45;6.70;;;;;;;25.14;50.12;101563.63;2251443;78;51598;-77
2023/09/08 01:58:06;;;;;;;8.73;7.17;;;;;;;25.13;50.11;101553.84;2236858;78;52508;-78
2023/09/08 02:01:08;;;;;;;8.20;6.10;;;;;;;25.12;50.06;101554.04;2283305;78;50330;-76
2023/09/08 02:04:11;;;;;;;8.60;6.83;;;;;;;25.13;50.07;101554.38;2252073;78;50314;-76
2023/09/08 02:07:13;;;;;;;7.67;6.87;;;;;;;25.13;50.06;101550.31;2228742;77;50702;-77
2023/09/08 02:10:16;;;;;;;10.78;6.70;;;;;;;25.13;50.06;101548.95;2253330;78;51544;-77
2023/09/08 02:13:18;;;;;;;9.55;7.12;;;;;;;25.14;50.06;101549.26;2227178;78;51702;-79
2023/09/08 02:16:20;;;;;;;8.80;6.80;;;;;;;25.11;50.02;101547.80;2243792;78;51443;-78
2023/09/08 02:19:22;;;;;;;6.67;5.97;;;;;;;25.11;50.04;101545.09;2219997;79;51466;-76
2023/09/08 02:22:24;;;;;;;9.50;6.92;;;;;;;25.12;50.02;101541.85;2170410;79;51044;-76
2023/09/08 02:25:26;;;;;;;7.80;6.47;;;;;;;25.12;50.01;101544.56;2216394;79;50016;-76
2023/09/08 02:28:29;;;;;;;9.18;6.45;;;;;;;25.11;50.01;101539.67;2239815;79;50271;-77
2023/09/08 02:31:31;;;;;;;7.58;6.50;;;;;;;25.12;50.00;101543.20;2216646;79;50367;-78
2023/09/08 02:34:37;;;;;;;10.93;6.62;;;;;;;25.11;49.97;101542.91;2215775;79;50322;-77
2023/09/08 02:37:39;;;;;;;8.68;6.65;;;;;;;25.11;49.95;101545.09;2194546;79;52657;-78
2023/09/08 02:40:41;;;;;;;8.08;6.67;;;;;;;25.11;49.93;101540.20;2243546;79;50732;-78
2023/09/08 02:43:43;;;;;;;8.55;6.42;;;;;;;25.10;49.93;101540.72;2220042;79;52637;-77
2023/09/08 02:46:45;;;;;;;7.20;6.05;;;;;;;25.10;49.93;101535.80;2196412;78;52452;-78
2023/09/08 02:49:47;;;;;;;6.75;6.05;;;;;;;25.09;49.93;101533.62;2239873;78;51409;-77
2023/09/08 02:52:50;;;;;;;11.63;6.70;;;;;;;25.09;49.95;101518.72;2261430;78;50223;-77
2023/09/08 02:55:52;;;;;;;6.87;6.17;;;;;;;25.08;49.92;101528.43;2216591;78;51519;-77
2023/09/08 02:58:55;;;;;;;9.33;7.00;;;;;;;25.08;49.90;101524.36;2265763;78;50760;-77
2023/09/08 03:01:58;;;;;;;9.40;6.78;;;;;;;25.09;49.90;101528.20;2241003;78;51161;-77
2023/09/08 03:05:01;;;;;;;8.68;6.58;;;;;;;25.08;49.88;101528.43;2240826;78;50731;-77
2023/09/08 03:08:05;;;;;;;8.45;6.60;;;;;;;25.07;49.86;101525.38;2260917;78;51544;-76
2023/09/08 03:11:08;;;;;;;7.50;6.53;;;;;;;25.07;49.88;101528.09;2216489;78;50847;-77
2023/09/08 03:14:11;;;;;;;8.13;6.47;;;;;;;25.06;49.88;101527.27;2240984;78;51545;-77
2023/09/08 03:17:13;;;;;;;8.53;6.87;;;;;;;25.06;49.86;101521.02;2271129;78;50271;-77
2023/09/08 03:20:15;;;;;;;7.75;6.42;;;;;;;25.06;49.87;101518.31;2250716;78;51476;-78
2023/09/08 03:23:18;;;;;;;7.72;6.78;;;;;;;25.05;49.87;101509.86;2281884;77;50671;-77
2023/09/08 03:26:20;;;;;;;6.67;6.03;;;;;;;25.05;49.87;101509.86;2277381;77;52480;-78
2023/09/08 03:29:22;;;;;;;8.88;6.55;;;;;;;25.05;49.86;101508.50;2228611;78;51312;-78
2023/09/08 03:32:25;;;;;;;8.03;6.65;;;;;;;25.05;49.85;101512.56;2227442;78;50793;-77
2023/09/08 03:35:27;;;;;;;8.08;6.50;;;;;;;25.04;49.77;101520.39;2277715;77;50925;-78
2023/09/08 03:38:29;;;;;;;7.12;6.37;;;;;;;25.03;49.75;101516.02;2283938;77;51685;-79
2023/09/08 03:41:31;;;;;;;7.42;6.47;;;;;;;25.03;49.77;101519.56;2282799;78;50739;-77
2023/09/08 03:44:33;;;;;;;7.78;6.85;;;;;;;25.03;49.75;101521.44;2228037;78;50353;-77
2023/09/08 03:47:36;;;;;;;8.20;6.90;;;;;;;25.02;49.77;101517.87;2239317;78;50393;-78
2023/09/08 03:50:38;;;;;;;8.28;6.62;;;;;;;25.02;49.75;101522.45;2240507;78;51387;-78
2023/09/08 03:53:40;;;;;;;7.42;6.58;;;;;;;25.02;49.76;101521.10;2260942;78;50326;-77
2023/09/08 03:56:42;;;;;;;9.40;6.65;;;;;;;25.01;49.78;101520.28;2261237;78;50383;-77
2023/09/08 03:59:45;;;;;;;9.05;6.80;;;;;;;25.02;49.74;101524.64;2191858;78;52442;-77
2023/09/08 04:02:47;;;;;;;9.55;6.83;;;;;;;25.02;49.73;101524.64;2260975;78;50317;-76
2023/09/08 04:05:49;;;;;;;9.88;6.92;;;;;;;25.01;49.68;101526.22;2261076;78;50340;-75
2023/09/08 04:08:51;;;;;;;8.00;6.47;;;;;;;25.01;49.70;101530.28;2215332;78;50743;-76
2023/09/08 04:11:54;;;;;;;8.85;6.75;;;;;;;25.01;49.72;101527.57;2216881;78;51515;-76
2023/09/08 04:14:57;;;;;;;7.95;6.70;;;;;;;24.99;49.68;101525.88;2192407;78;50124;-77
2023/09/08 04:17:59;;;;;;;10.38;6.60;;;;;;;24.99;49.67;101520.99;2177145;80;50306;-78
2023/09/08 04:21:01;;;;;;;8.40;7.20;;;;;;;24.99;49.65;101522.34;2205996;80;50678;-78
2023/09/08 04:24:04;;;;;;;8.70;7.17;;;;;;;24.98;49.68;101521.52;2228682;79;51417;-78
2023/09/08 04:27:08;;;;;;;8.23;6.90;;;;;;;24.98;49.65;101527.46;2201657;78;51680;-76
2023/09/08 04:30:11;;;;;;;7.97;7.05;;;;;;;24.97;49.70;101523.06;2216020;78;51526;-77
2023/09/08 04:33:14;;;;;;;10.15;7.53;;;;;;;24.97;49.64;101523.06;2265457;78;51505;-77
2023/09/08 04:36:16;;;;;;;8.40;7.30;;;;;;;24.97;49.60;101526.63;2241711;78;50195;-77
2023/09/08 04:39:18;;;;;;;9.00;7.22;;;;;;;24.96;49.61;101529.00;2215164;78;51185;-77
2023/09/08 04:42:20;;;;;;;8.80;7.30;;;;;;;24.98;49.57;101524.75;2240620;78;50297;-77
2023/09/08 04:45:22;;;;;;;9.93;7.50;;;;;;;24.96;49.46;101529.53;2265743;78;50662;-78
2023/09/08 04:48:25;;;;;;;9.38;6.67;;;;;;;24.94;49.50;101532.43;2221081;78;51944;-77
2023/09/08 04:51:27;;;;;;;9.55;6.67;;;;;;;24.94;49.52;101529.72;2259860;78;51435;-77
2023/09/08 04:54:29;;;;;;;7.70;6.55;;;;;;;24.93;49.51;101528.06;2192793;78;51503;-76
2023/09/08 04:57:32;;;;;;;11.28;6.65;;;;;;;24.92;49.55;101533.18;2236314;78;51656;-78
2023/09/08 05:00:34;;;;;;;8.88;6.95;;;;;;;24.94;49.71;101532.43;2245698;78;51559;-76
2023/09/08 05:03:36;;;;;;;11.48;7.58;;;;;;;24.93;50.06;101536.19;2170450;78;49613;-77
2023/09/08 05:06:38;;;;;;;12.73;7.62;;;;;;;24.92;50.34;101534.53;2223603;78;50022;-77
2023/09/08 05:09:40;;;;;;;14.40;7.05;;;;;;;24.93;50.37;101534.01;2214211;79;50621;-77
2023/09/08 05:12:43;;;;;;;8.90;7.35;;;;;;;24.93;50.50;101533.48;2169177;79;51735;-77
2023/09/08 05:15:48;;;;;;;8.48;7.20;;;;;;;24.93;50.41;101532.66;2214225;79;50671;-77
2023/09/08 05:18:49;;;;;;;12.05;7.20;;;;;;;24.93;50.43;101538.90;2247185;78;22766;-77
2023/09/08 05:21:52;;;;;;;13.48;7.95;;;;;;;24.94;50.41;101537.84;2246975;79;50664;-77
2023/09/08 05:24:54;;;;;;;9.95;6.90;;;;;;;24.93;50.42;101536.19;2209833;78;51335;-78
2023/09/08 05:27:56;;;;;;;10.35;7.42;;;;;;;24.94;50.42;101539.72;2220283;78;52523;-78
2023/09/08 05:30:58;;;;;;;8.98;7.45;;;;;;;24.93;50.46;101534.01;2216236;78;51009;-77
2023/09/08 05:34:00;;;;;;;10.82;6.80;;;;;;;24.93;50.44;101532.66;2224606;78;51546;-77
2023/09/08 05:37:03;;;;;;;12.18;6.70;;;;;;;24.95;50.57;101528.70;2220218;78;52513;-77
2023/09/08 05:40:07;;;;;;;12.88;7.33;;;;;;;25.04;50.48;101533.40;2207362;78;51423;-77
2023/09/08 05:43:10;;;;;;;15.18;8.03;;;;;;;25.06;50.75;101537.27;2205229;79;50227;-78
2023/09/08 05:46:12;;;;;;;11.55;7.00;;;;;;;25.10;50.80;101536.66;2222554;79;50209;-77
2023/09/08 05:49:15;;;;;;;15.95;7.00;;;;;;;25.13;50.83;101538.95;2222081;78;50327;-76
2023/09/08 05:52:17;;;;;;;9.43;6.70;;;;;;;25.17;50.74;101537.52;2221790;78;51197;-77
2023/09/08 05:55:20;;;;;;;12.13;6.83;;;;;;;25.26;50.50;101537.34;2219327;78;50348;-77
2023/09/08 05:58:24;;;;;;;10.53;7.00;;;;;;;25.39;50.10;101547.67;2233491;78;50648;-77
2023/09/08 06:01:26;;;;;;;8.13;6.58;;;;;;;25.41;50.03;101540.70;2226618;78;51657;-78
2023/09/08 06:04:31;;;;;;;12.95;7.12;;;;;;;25.47;49.94;101539.03;2252338;78;50680;-78
2023/09/08 06:07:32;;;;;;;10.48;7.20;;;;;;;25.49;49.89;101540.49;2260802;78;22416;-79
2023/09/08 06:10:35;;;;;;;16.80;7.15;;;;;;;25.55;49.72;101541.53;2195212;78;50597;-77
2023/09/08 06:13:37;;;;;;;9.30;6.58;;;;;;;25.57;49.65;101544.88;2191136;78;50296;-78
2023/09/08 06:16:39;;;;;;;11.05;7.10;;;;;;;25.59;49.56;101537.38;2266612;78;50724;-77
2023/09/08 06:19:42;;;;;;;10.68;6.50;;;;;;;25.60;49.54;101540.39;2171740;78;51309;-78
2023/09/08 06:22:44;;;;;;;10.00;6.80;;;;;;;25.66;49.43;101534.12;2193396;78;50600;-78
2023/09/08 06:25:46;;;;;;;10.30;6.47;;;;;;;25.71;49.35;101539.75;2257216;78;51514;-77
2023/09/08 06:28:48;;;;;;;12.65;6.87;;;;;;;25.71;49.33;101529.44;2276596;76;50687;-78
2023/09/08 06:31:50;;;;;;;12.98;6.33;;;;;;;25.71;49.36;101528.91;2203680;79;50710;-80
2023/09/08 06:34:53;;;;;;;13.55;6.67;;;;;;;25.73;49.35;101537.66;2235089;79;50897;-78
2023/09/08 06:37:55;;;;;;;12.88;6.72;;;;;;;25.76;49.36;101533.17;2210866;79;51430;-79
2023/09/08 06:40:57;;;;;;;13.90;7.20;;;;;;;25.78;49.43;101536.52;2211641;79;52401;-77
2023/09/08 06:44:00;;;;;;;12.13;6.55;;;;;;;25.80;49.40;101535.79;2237058;78;50657;-77
2023/09/08 06:47:03;;;;;;;10.90;6.03;;;;;;;25.82;49.40;101528.81;2249321;78;50140;-77
2023/09/08 06:50:06;;;;;;;10.45;6.90;;;;;;;25.87;49.34;101535.83;2218567;79;51550;-78
2023/09/08 06:53:09;;;;;;;13.08;6.60;;;;;;;25.86;49.38;101532.78;2222943;78;51560;-78
2023/09/08 06:56:11;;;;;;;10.32;6.30;;;;;;;25.91;49.29;101532.16;2229309;78;51409;-77
2023/09/08 06:59:13;;;;;;;7.25;6.50;;;;;;;25.92;49.27;101528.39;2241388;78;51668;-76
2023/09/08 07:02:15;;;;;;;12.23;6.65;;;;;;;25.93;49.26;101528.20;2260966;78;51520;-77
2023/09/08 07:05:18;;;;;;;12.47;6.72;;;;;;;25.93;49.24;101526.02;2240721;78;51452;-76
2023/09/08 07:08:20;;;;;;;10.10;6.92;;;;;;;25.96;49.20;101525.05;2240493;78;51725;-78
2023/09/08 07:11:22;;;;;;;11.03;6.92;;;;;;;25.98;49.15;101530.28;2265158;78;51489;-76
2023/09/08 07:14:24;;;;;;;11.85;6.60;;;;;;;25.99;49.12;101536.00;2240193;78;51013;-78
2023/09/08 07:17:27;;;;;;;12.95;7.15;;;;;;;26.00;49.06;101528.20;2266552;78;50856;-76
2023/09/08 07:20:30;;;;;;;14.98;6.97;;;;;;;26.01;49.02;101533.92;2242429;79;51714;-78
2023/09/08 07:23:32;;;;;;;10.43;6.92;;;;;;;26.03;48.96;101522.34;2243861;79;51793;-78
2023/09/08 07:26:34;;;;;;;13.13;7.25;;;;;;;26.03;48.97;101535.91;2196523;79;51426;-78
2023/09/08 07:29:36;;;;;;;12.35;7.00;;;;;;;26.02;48.94;101533.72;2241809;79;50746;-76
2023/09/08 07:32:39;;;;;;;12.70;6.85;;;;;;;26.03;48.93;101529.95;2193777;79;52214;-77
2023/09/08 07:35:41;;;;;;;13.45;6.87;;;;;;;26.04;48.94;101528.06;2217574;79;51487;-77
2023/09/08 07:38:43;;;;;;;8.15;6.80;;;;;;;26.03;48.92;101531.84;2241348;79;50405;-76
2023/09/08 07:41:46;;;;;;;10.70;7.03;;;;;;;26.05;48.84;101539.25;2195348;79;50025;-77
2023/09/08 07:44:48;;;;;;;12.98;7.40;;;;;;;26.04;48.86;101535.67;2241598;79;50620;-76
2023/09/08 07:47:50;;;;;;;10.98;6.72;;;;;;;26.05;48.85;101535.17;2228519;78;50079;-78
2023/09/08 07:50:53;;;;;;;8.80;6.50;;;;;;;26.03;48.89;101534.55;2219106;79;50277;-76
2023/09/08 07:53:55;;;;;;;10.40;7.25;;;;;;;26.05;48.83;101531.11;2243044;79;51135;-79
2023/09/08 07:56:58;;;;;;;8.53;6.62;;;;;;;26.04;48.83;101535.67;2243499;79;52873;-77
2023/09/08 08:00:00;;;;;;;9.93;7.08;;;;;;;26.05;48.82;101531.94;2241855;79;51549;-77
2023/09/08 08:03:02;;;;;;;9.10;6.45;;;;;;;26.04;48.82;101534.84;2217770;79;50755;-77
2023/09/08 08:06:05;;;;;;;8.20;6.85;;;;;;;26.05;48.81;101542.78;2195717;79;51283;-76
2023/09/08 08:09:07;;;;;;;8.65;6.35;;;;;;;26.04;48.83;101542.98;2197321;79;52648;-77
2023/09/08 08:12:10;;;;;;;7.00;6.22;;;;;;;26.04;48.81;101543.81;2176696;79;51270;-77
2023/09/08 08:15:12;;;;;;;9.08;6.55;;;;;;;26.03;48.82;101544.05;2242195;79;50256;-76
2023/09/08 08:18:14;;;;;;;9.70;6.37;;;;;;;26.03;48.78;101538.62;2217549;79;51572;-77
2023/09/08 08:21:16;;;;;;;9.18;6.53;;;;;;;26.04;48.76;101542.98;2239301;79;51007;-78
2023/09/08 08:24:19;;;;;;;7.62;6.80;;;;;;;26.01;48.83;101540.70;2228986;79;51639;-78
2023/09/08 08:27:21;;;;;;;8.58;6.60;;;;;;;26.00;48.84;101534.98;2184102;79;50684;-79
2023/09/08 08:30:24;;;;;;;8.90;6.33;;;;;;;26.00;48.86;101541.76;2205291;79;51527;-78
2023/09/08 08:33:26;;;;;;;9.28;6.42;;;;;;;26.00;48.83;101533.62;2228917;79;51587;-78
2023/09/08 08:36:28;;;;;;;8.68;6.28;;;;;;;25.97;48.87;101528.09;2206946;79;51517;-77
2023/09/08 08:39:31;;;;;;;8.23;6.37;;;;;;;25.98;48.90;101528.92;2206903;79;50705;-77
2023/09/08 08:42:33;;;;;;;10.40;6.60;;;;;;;25.96;48.90;101534.55;2206462;79;51476;-78
2023/09/08 08:45:35;;;;;;;9.43;6.17;;;;;;;25.94;48.91;101527.14;2186313;78;50246;-77
2023/09/08 08:48:38;;;;;;;8.35;6.30;;;;;;;25.94;48.95;101533.09;2247640;78;51451;-77
2023/09/08 08:51:40;;;;;;;8.40;6.60;;;;;;;25.92;48.99;101529.75;2260518;78;50735;-77
2023/09/08 08:54:46;;;;;;;8.85;6.50;;;;;;;25.91;49.03;101526.21;2260331;78;51413;-78
2023/09/08 08:57:46;;;;;;;9.73;6.45;;;;;;;25.91;49.05;101526.21;2263443;78;22372;-76
2023/09/08 09:00:48;;;;;;;9.20;6.22;;;;;;;25.90;49.07;101521.02;2239678;78;52485;-78
2023/09/08 09:03:50;;;;;;;7.83;6.22;;;;;;;25.90;49.06;101519.66;2260204;78;51452;-77
2023/09/08 09:06:54;;;;;;;9.63;6.40;;;;;;;25.90;49.08;101523.73;2260603;78;51484;-77
2023/09/08 09:09:56;;;;;;;8.68;5.85;;;;;;;25.89;49.08;101522.05;2239612;78;51857;-76
2023/09/08 09:12:59;;;;;;;8.50;6.45;;;;;;;25.87;49.17;101518.70;2260353;78;51999;-77
2023/09/08 09:16:03;;;;;;;10.13;6.03;;;;;;;25.88;49.14;101516.32;2226226;78;50737;-78
2023/09/08 09:19:05;;;;;;;8.13;6.05;;;;;;;25.84;49.18;101522.17;2272902;78;22380;-77
2023/09/08 09:22:07;;;;;;;8.23;6.50;;;;;;;25.82;49.21;101528.29;2231515;78;50532;-82
2023/09/08 09:25:10;;;;;;;6.83;6.12;;;;;;;25.83;49.23;101523.69;2281084;78;52540;-77
2023/09/08 09:28:12;;;;;;;9.83;6.20;;;;;;;25.83;49.23;101520.45;2256258;78;50413;-77
2023/09/08 09:31:14;;;;;;;6.42;5.83;;;;;;;25.81;49.27;101510.34;2274654;78;50643;-77
2023/09/08 09:34:17;;;;;;;7.75;6.03;;;;;;;25.81;49.28;101518.47;2229878;78;51678;-77
2023/09/08 09:37:19;;;;;;;7.42;6.50;;;;;;;25.78;49.32;101509.41;2256072;78;51567;-77
2023/09/08 09:40:22;;;;;;;10.00;5.85;;;;;;;25.77;49.39;101516.41;2274622;78;51623;-77
2023/09/08 09:43:24;;;;;;;7.87;6.37;;;;;;;25.78;49.33;101511.29;2255692;78;52440;-77
2023/09/08 09:46:30;;;;;;;10.78;6.10;;;;;;;25.77;49.34;101513.17;2273243;78;50171;-77
2023/09/08 09:49:33;;;;;;;7.62;5.70;;;;;;;25.78;49.36;101512.12;2234306;78;51261;-77
2023/09/08 09:52:35;;;;;;;8.08;6.05;;;;;;;25.75;49.44;101510.36;2246437;78;51537;-79
2023/09/08 09:55:42;;;;;;;7.75;6.00;;;;;;;25.76;49.45;101503.88;2222580;78;50383;-79
2023/09/08 09:58:42;;;;;;;9.65;5.87;;;;;;;25.73;49.49;101498.36;2244668;78;22385;-77
2023/09/08 10:01:45;;;;;;;9.35;6.30;;;;;;;25.72;49.50;101502.13;2267480;78;51494;-77
2023/09/08 10:04:49;;;;;;;7.15;6.33;;;;;;;25.72;49.48;101504.84;2267127;78;50257;-78
2023/09/08 10:07:52;;;;;;;6.70;5.80;;;;;;;25.71;49.49;101500.97;2222663;78;50200;-77
2023/09/08 10:10:55;;;;;;;6.75;5.90;;;;;;;25.71;49.51;101500.44;2267280;78;50346;-77
2023/09/08 10:14:00;;;;;;;6.47;5.50;;;;;;;25.71;49.51;101493.66;2270245;78;52723;-78
2023/09/08 10:17:02;;;;;;;7.80;6.00;;;;;;;25.68;49.56;101486.48;2262463;78;50683;-77
2023/09/08 10:20:10;;;;;;;7.85;6.25;;;;;;;25.71;49.50;101486.06;2241341;79;52374;-76
2023/09/08 10:23:40;;;;;;;7.95;5.35;;;;;;;25.71;49.51;101485.53;2241633;79;22921;-77
2023/09/08 10:26:46;;;;;;;7.97;6.10;;;;;;;25.70;49.54;101485.23;2240864;79;50736;-76
2023/09/08 10:29:48;;;;;;;9.65;6.30;;;;;;;25.72;49.53;101479.61;2241406;79;51552;-77
2023/09/08 10:32:50;;;;;;;7.58;5.90;;;;;;;25.68;49.61;101483.25;2241150;79;51475;-77
2023/09/08 10:35:53;;;;;;;8.30;6.40;;;;;;;25.70;49.58;101484.41;2236232;78;50823;-77
2023/09/08 10:38:56;;;;;;;9.15;6.65;;;;;;;25.69;49.63;101472.73;2230276;78;51197;-76
2023/09/08 10:42:19;;;;;;;9.40;6.67;;;;;;;25.70;49.61;101475.75;2231576;78;51611;-78
2023/09/08 10:45:21;;;;;;;9.28;5.78;;;;;;;25.69;49.63;101470.02;2254986;79;50714;-77
2023/09/08 10:48:23;;;;;;;7.72;5.87;;;;;;;25.68;49.64;101467.52;2223776;79;49634;-77
2023/09/08 10:51:25;;;;;;;9.03;6.28;;;;;;;25.69;49.60;101464.61;2192279;77;50216;-78
2023/09/08 10:54:42;;;;;;;9.18;6.25;;;;;;;25.69;49.64;101465.10;2259204;77;50675;-81
2023/09/08 10:57:47;;;;;;;7.12;5.92;;;;;;;25.67;49.68;101467.22;2215155;79;51646;-80
2023/09/08 11:00:54;;;;;;;10.65;6.00;;;;;;;25.69;49.67;101465.96;2194327;79;51583;-79
2023/09/08 11:03:55;;;;;;;8.10;5.67;;;;;;;25.68;49.69;101471.05;2249613;79;23008;-78
2023/09/08 11:06:58;;;;;;;7.10;5.72;;;;;;;25.71;49.65;101458.95;2194456;79;52515;-78
2023/09/08 11:10:03;;;;;;;8.13;5.95;;;;;;;25.69;49.69;101465.96;2249383;79;50820;-79
2023/09/08 11:13:06;;;;;;;9.15;6.10;;;;;;;25.71;49.62;101461.13;2217241;79;51287;-76
2023/09/08 11:16:08;;;;;;;9.40;6.05;;;;;;;25.71;49.63;101462.48;2249247;79;50828;-77
2023/09/08 11:19:10;;;;;;;10.70;6.15;;;;;;;25.69;49.66;101459.19;2217590;79;50292;-77
2023/09/08 11:22:13;;;;;;;7.37;5.67;;;;;;;25.70;49.68;101455.41;2193958;79;50835;-76
2023/09/08 11:25:15;;;;;;;6.33;5.65;;;;;;;25.70;49.65;101460.01;2216547;79;51393;-78
2023/09/08 11:28:18;;;;;;;7.45;6.40;;;;;;;25.70;49.69;101458.13;2249376;79;50670;-77
2023/09/08 11:31:20;;;;;;;8.15;5.75;;;;;;;25.68;49.69;101456.14;2193763;79;51481;-78
2023/09/08 11:34:22;;;;;;;7.65;6.10;;;;;;;25.70;49.69;101452.70;2217555;79;50458;-77
2023/09/08 11:37:24;;;;;;;8.28;5.65;;;;;;;25.68;49.73;101452.08;2216115;79;51188;-78
2023/09/08 11:40:26;;;;;;;9.63;6.08;;;;;;;25.70;49.68;101448.64;2241792;79;50661;-78
2023/09/08 11:43:32;;;;;;;10.53;6.08;;;;;;;25.71;49.68;101447.58;2247339;78;50381;-77
2023/09/08 11:46:33;;;;;;;9.05;6.10;;;;;;;25.71;49.66;101450.30;2241859;78;22267;-79
2023/09/08 11:49:38;;;;;;;8.60;5.87;;;;;;;25.71;49.70;101445.40;2218879;79;51571;-79
2023/09/08 11:52:41;;;;;;;6.62;5.70;;;;;;;25.70;49.70;101445.10;2218924;79;52860;-78
2023/09/08 11:55:43;;;;;;;8.55;6.42;;;;;;;25.71;49.70;101449.47;2218752;79;50333;-78
2023/09/08 11:58:45;;;;;;;7.12;5.42;;;;;;;25.71;49.67;101443.52;2241665;79;50708;-78
2023/09/08 12:01:47;;;;;;;10.13;6.55;;;;;;;25.69;49.77;101437.99;2243470;79;52503;-78
2023/09/08 12:04:50;;;;;;;10.25;5.67;;;;;;;25.68;49.80;101430.39;2241525;79;50757;-79
2023/09/08 12:07:53;;;;;;;9.15;5.87;;;;;;;25.71;49.76;101430.49;2219097;79;50321;-78
2023/09/08 12:10:55;;;;;;;6.58;5.65;;;;;;;25.69;49.81;101425.30;2241388;79;51501;-76
2023/09/08 12:14:02;;;;;;;6.37;5.72;;;;;;;25.69;49.78;101415.81;2241409;79;51453;-76
2023/09/08 12:17:07;;;;;;;7.42;5.95;;;;;;;25.70;49.77;101419.35;2242329;78;51759;-78
2023/09/08 12:20:16;;;;;;;7.62;6.08;;;;;;;25.70;49.74;101421.53;2203860;78;51514;-78
2023/09/08 12:23:22;;;;;;;12.70;6.12;;;;;;;25.71;49.74;101410.16;2224461;79;50261;-78
2023/09/08 12:26:29;;;;;;;6.97;5.67;;;;;;;25.69;49.89;101409.03;2160454;80;51765;-78
2023/09/08 12:29:32;;;;;;;8.15;6.22;;;;;;;25.67;50.03;101412.47;2223634;80;51556;-78
2023/09/08 12:32:34;;;;;;;9.43;6.08;;;;;;;25.64;50.11;101411.02;2246713;78;51488;-79
2023/09/08 12:35:36;;;;;;;8.65;6.28;;;;;;;25.64;50.21;101404.77;2243805;78;52122;-78
2023/09/08 12:38:38;;;;;;;9.33;6.17;;;;;;;25.66;50.13;101401.30;2237092;79;50362;-81
2023/09/08 12:41:40;;;;;;;8.15;5.95;;;;;;;25.73;50.09;101399.41;2242873;78;51452;-81
2023/09/08 12:44:43;;;;;;;9.10;5.70;;;;;;;25.70;50.07;101397.14;2241486;79;50348;-77
2023/09/08 12:47:45;;;;;;;12.37;6.05;;;;;;;25.72;50.09;101399.12;2223664;80;51676;-78
2023/09/08 12:50:52;;;;;;;12.10;6.37;;;;;;;25.71;50.13;101388.47;2179148;80;50111;-79
2023/09/08 12:53:51;;;;;;;13.85;6.12;;;;;;;25.70;50.48;101386.30;2222827;79;22332;-79
2023/09/08 12:56:53;;;;;;;13.08;5.62;;;;;;;25.77;50.56;101395.25;2188635;78;50629;-79
2023/09/08 12:59:56;;;;;;;13.88;6.55;;;;;;;25.75;50.78;101380.24;2248311;78;51455;-76
2023/09/08 13:02:58;;;;;;;11.08;5.83;;;;;;;25.75;50.84;101372.11;2213462;79;51471;-77
2023/09/08 13:06:00;;;;;;;11.22;6.10;;;;;;;25.75;50.80;101370.75;2203753;80;51021;-76
2023/09/08 13:09:02;;;;;;;12.65;5.80;;;;;;;25.75;50.84;101372.94;2202118;80;50316;-79
2023/09/08 13:12:05;;;;;;;10.03;6.00;;;;;;;25.77;50.77;101372.20;2225754;79;51512;-79
2023/09/08 13:15:08;;;;;;;14.85;6.17;;;;;;;25.76;50.80;101370.52;2156038;80;52511;-77
2023/09/08 13:18:10;;;;;;;33.88;7.58;;;;;;;25.77;50.71;101370.02;2197625;76;51521;-78
2023/09/08 13:21:13;;;;;;;16.40;6.28;;;;;;;25.78;50.92;101368.44;2262660;78;50328;-79
2023/09/08 13:24:15;;;;;;;15.70;5.75;;;;;;;25.78;50.86;101357.59;2182305;79;51469;-79
2023/09/08 13:27:17;;;;;;;18.42;6.20;;;;;;;25.78;50.87;101358.95;2252781;78;50646;-77
2023/09/08 13:30:22;;;;;;;12.85;5.62;;;;;;;25.76;50.94;101356.14;2223894;79;52467;-78
2023/09/08 13:33:24;;;;;;;13.75;5.92;;;;;;;25.76;51.01;101352.91;2195432;79;51579;-79
2023/09/08 13:36:26;;;;;;;19.77;6.10;;;;;;;25.75;51.05;101356.67;2257326;78;51477;-77
2023/09/08 13:39:28;;;;;;;18.05;6.05;;;;;;;25.77;51.00;101341.56;2203908;78;49818;-78
2023/09/08 13:42:31;;;;;;;17.70;5.60;;;;;;;25.77;51.03;101346.45;2251367;78;51564;-78
2023/09/08 13:45:33;;;;;;;15.48;6.35;;;;;;;25.76;51.07;101334.45;2270491;78;50304;-79
2023/09/08 13:48:35;;;;;;;10.68;5.60;;;;;;;25.78;51.06;101341.86;2198053;78;50497;-76
2023/09/08 13:51:37;;;;;;;10.95;5.55;;;;;;;25.77;51.12;101334.25;2237118;78;50811;-78
2023/09/08 13:54:40;;;;;;;16.35;6.03;;;;;;;25.78;51.11;101333.20;2247887;78;51590;-77
2023/09/08 13:57:42;;;;;;;9.78;5.83;;;;;;;25.80;51.18;101331.11;2260581;78;50673;-78
2023/09/08 14:00:45;;;;;;;11.63;5.62;;;;;;;25.82;51.07;101329.02;2193308;78;51462;-78
2023/09/08 14:03:51;;;;;;;11.57;5.65;;;;;;;25.84;50.96;101325.61;2239475;78;51639;-79
2023/09/08 14:06:51;;;;;;;11.88;5.83;;;;;;;25.85;50.99;101325.08;2264591;78;23219;-80